Flight Track Log - Related Links

Times and Time Zones

All times are in EDT time to prevent confusion due to time zone crossing. See the SWA2523 flight status page for this flight to view local times or setup timezone preferences in your user account.

Time Position Orientation Groundspeed Altitude Reporting Facility
EDT Latitude Longitude Course Direction KTS MPH feet Rate Location/Type
Mon 08:24:16 PM 36.0753 -115.1047 90° East 167 192 3,500  Level Los Angeles Center
Mon 08:25:10 PM 36.0753 -115.0461 90° East 204 235 4,700 1,667 Climbing Los Angeles Center
Mon 08:26:04 PM 36.0764 -114.9639 89° East 252 290 6,500 2,276 Climbing Los Angeles Center
Mon 08:27:06 PM 36.0892 -114.8742 80° East 288 331 9,100 2,081 Climbing Los Angeles Center
Mon 08:28:08 PM 36.1067 -114.7664 79° East 312 359 10,800 2,419 Climbing Los Angeles Center
Mon 08:29:10 PM 36.1322 -114.6178 78° East 362 417 14,100 3,000 Climbing Los Angeles Center
Mon 08:30:12 PM 36.1525 -114.4908 79° East 374 430 17,000 2,688 Climbing Los Angeles Center
Mon 08:31:15 PM 36.1753 -114.3592 78° East 385 443 19,700 2,304 Climbing Los Angeles Center
Mon 08:32:17 PM 36.1961 -114.2217 79° East 400 460 21,800 1,887 Climbing Los Angeles Center
Mon 08:33:19 PM 36.2131 -114.0764 82° East 420 483 23,600 1,839 Climbing Los Angeles Center
Mon 08:34:21 PM 36.2319 -113.9256 81° East 436 502 25,600 1,742 Climbing Los Angeles Center
Mon 08:35:23 PM 36.2539 -113.7392 82° East 451 519 27,200 1,548 Climbing Los Angeles Center
Mon 08:36:25 PM 36.2728 -113.5767 82° East 471 542 28,800 1,776 Climbing Los Angeles Center
Mon 08:37:28 PM 36.2914 -113.4131 82° East 479 551 30,900 1,728 Climbing Los Angeles Center
Mon 08:38:30 PM 36.3128 -113.2369 81° East 477 549 32,400 1,452 Climbing Los Angeles Center
Mon 08:39:32 PM 36.3636 -113.0864 67° East 476 548 33,900 1,548 Climbing Los Angeles Center
Mon 08:40:34 PM 36.4181 -112.9392 65° Northeast 475 547 35,600 1,452 Climbing Los Angeles Center
Mon 08:41:36 PM 36.4711 -112.7956 65° Northeast 465 535 36,900 677 Climbing Los Angeles Center
Mon 08:42:38 PM 36.5236 -112.6517 66° East 462 532 37,000 48 Climbing Los Angeles Center
Mon 08:43:41 PM 36.5872 -112.4792 65° Northeast 462 532 37,000  Level Los Angeles Center
Mon 08:44:43 PM 36.6397 -112.3344 66° East 461 531 37,000  Level Los Angeles Center
Mon 08:45:45 PM 36.6933 -112.1881 65° Northeast 464 534 37,000  Level Los Angeles Center
Mon 08:46:47 PM 36.7464 -112.0392 66° East 466 536 37,000  Level Los Angeles Center
Mon 08:47:49 PM 36.8000 -111.8900 66° East 473 544 37,000  Level Los Angeles Center
Mon 08:48:51 PM 36.8631 -111.7125 66° East 471 542 37,000  Level Los Angeles Center
Mon 08:49:53 PM 36.9158 -111.5639 66° East 471 542 37,000  Level Los Angeles Center
Mon 08:50:56 PM 36.9686 -111.4161 66° East 470 541 37,000  Level Los Angeles Center
Mon 08:51:58 PM 37.0208 -111.2692 66° East 470 541 37,000  Level Los Angeles Center
Mon 08:53:00 PM 37.0719 -111.1214 67° East 469 540 37,000  Level Los Angeles Center
Mon 08:54:28 PM 37.1528 -110.8864 67° East 464 534 37,000  Level Denver Center
Mon 08:55:30 PM 37.2042 -110.7400 66° East 461 531 37,000  Level Denver Center
Mon 08:56:32 PM 37.2539 -110.5925 67° East 461 531 37,000  Level Denver Center
Mon 08:57:34 PM 37.3039 -110.4464 67° East 460 529 37,000  Level Denver Center
Mon 08:58:35 PM 37.3536 -110.3019 67° East 454 522 37,000  Level Denver Center
Mon 08:59:37 PM 37.4064 -110.1478 67° East 454 522 37,000  Level Denver Center
Mon 09:00:39 PM 37.4600 -109.9847 67° East 453 521 37,000  Level Denver Center
Mon 09:01:41 PM 37.5078 -109.8450 67° East 453 521 37,000  Level Denver Center
Mon 09:02:42 PM 37.5617 -109.6825 67° East 452 520 37,000  Level Denver Center
Mon 09:03:44 PM 37.6078 -109.5453 67° East 446 513 37,000  Level Denver Center
Mon 09:04:46 PM 37.6617 -109.3811 67° East 452 520 37,000  Level Denver Center
Mon 09:05:47 PM 37.7067 -109.2428 68° East 450 518 37,000  Level Denver Center
Mon 09:06:49 PM 37.7517 -109.1058 67° East 446 513 37,000  Level Denver Center
Mon 09:07:51 PM 37.8050 -108.9431 67° East 446 513 37,000  Level Denver Center
Mon 09:08:52 PM 37.8517 -108.8075 66° East 442 509 37,000  Level Denver Center
Mon 09:09:54 PM 37.9072 -108.6472 66° East 443 510 37,000  Level Denver Center
Mon 09:10:56 PM 37.9547 -108.5125 66° East 442 509 37,000  Level Denver Center
Mon 09:11:57 PM 38.0014 -108.3769 66° East 442 509 37,000  Level Denver Center
Mon 09:12:59 PM 38.0558 -108.2194 66° East 440 506 37,000  Level Denver Center
Mon 09:14:01 PM 38.1044 -108.0750 67° East 440 506 37,000  Level Denver Center
Mon 09:15:02 PM 38.1503 -107.9406 67° East 437 503 37,000  Level Denver Center
Mon 09:16:04 PM 38.2033 -107.7847 67° East 435 501 37,000  Level Denver Center
Mon 09:17:06 PM 38.2483 -107.6508 67° East 433 498 37,000  Level Denver Center
Mon 09:18:07 PM 38.3003 -107.4942 67° East 432 497 37,000  Level Denver Center
Mon 09:19:09 PM 38.3450 -107.3617 67° East 431 496 37,000  Level Denver Center
Mon 09:20:11 PM 38.3975 -107.2067 67° East 431 496 37,000  Level Denver Center
Mon 09:21:12 PM 38.4372 -107.0833 68° East 426 490 37,000  Level Denver Center
Mon 09:22:14 PM 38.4725 -106.9389 73° East 427 491 37,000  Level Denver Center
Mon 09:23:16 PM 38.5006 -106.7919 76° East 426 490 37,000  Level Denver Center
Mon 09:24:17 PM 38.5350 -106.6175 76° East 425 489 37,000  Level Denver Center
Mon 09:25:19 PM 38.5631 -106.4725 76° East 421 484 37,000  Level Denver Center
Mon 09:26:21 PM 38.5911 -106.3272 76° East 422 486 37,000  Level Denver Center
Mon 09:27:23 PM 38.6228 -106.1656 76° East 423 487 37,000  Level Denver Center
Mon 09:28:24 PM 38.6489 -106.0364 75° East 425 489 37,000  Level Denver Center
Mon 09:29:26 PM 38.6756 -105.8889 77° East 425 489 37,000  Level Denver Center
Mon 09:30:28 PM 38.7089 -105.7156 76° East 423 487 37,000  Level Denver Center
Mon 09:31:29 PM 38.7356 -105.5706 77° East 423 487 37,000  Level Denver Center
Mon 09:32:31 PM 38.7622 -105.4253 77° East 423 487 37,000  Level Denver Center
Mon 09:33:33 PM 38.7892 -105.2806 77° East 422 486 37,000  Level Denver Center
Mon 09:34:35 PM 38.8158 -105.1369 77° East 421 484 37,000  Level Denver Center
Mon 09:35:36 PM 38.8417 -104.9922 77° East 420 483 37,000  Level Denver Center
Mon 09:36:38 PM 38.8739 -104.8158 77° East 421 484 37,000  Level Denver Center
Mon 09:37:40 PM 38.8997 -104.6689 77° East 424 488 37,000  Level Denver Center
Mon 09:38:41 PM 38.9261 -104.5242 77° East 423 487 37,000  Level Denver Center
Mon 09:39:43 PM 38.9519 -104.3797 77° East 422 486 37,000  Level Denver Center
Mon 09:40:45 PM 38.9758 -104.2353 78° East 417 480 37,000 49 Level Denver Center
Mon 09:41:46 PM 39.0006 -104.0906 78° East 417 480 37,100 634 Climbing Denver Center
Mon 09:42:48 PM 39.0317 -103.9125 77° East 426 490 38,300 919 Climbing Denver Center
Mon 09:43:50 PM 39.0569 -103.7669 77° East 425 489 39,000 341 Climbing Denver Center
Mon 09:44:51 PM 39.0803 -103.6167 79° East 425 489 39,000  Level Denver Center
Mon 09:45:53 PM 39.1067 -103.4672 77° East 428 493 39,000  Level Denver Center
Mon 09:46:55 PM 39.1325 -103.3150 78° East 432 497 39,000  Level Denver Center
Mon 09:47:56 PM 39.1575 -103.1614 78° East 439 505 39,000  Level Denver Center
Mon 09:48:58 PM 39.1822 -103.0075 78° East 439 505 39,000  Level Denver Center
Mon 09:50:00 PM 39.2119 -102.8242 78° East 439 505 39,000  Level Denver Center
Mon 09:51:02 PM 39.2347 -102.6689 79° East 439 505 39,000  Level Denver Center
Mon 09:52:03 PM 39.2594 -102.5219 78° East 438 504 39,000  Level Denver Center
Mon 09:53:05 PM 39.2872 -102.3497 78° East 438 504 39,000  Level Denver Center
Mon 09:54:07 PM 39.3092 -102.2022 79° East 438 504 39,000  Level Denver Center
Mon 09:55:08 PM 39.3333 -102.0444 79° East 440 506 39,000  Level Denver Center
Mon 09:56:10 PM 39.3603 -101.8711 79° East 441 507 39,000  Level Denver Center
Mon 09:57:12 PM 39.3836 -101.7222 78° East 442 509 39,000  Level Denver Center
Mon 09:58:13 PM 39.4086 -101.5717 78° East 444 511 39,000  Level Denver Center
Mon 09:59:15 PM 39.4392 -101.3961 77° East 449 517 39,000  Level Denver Center
Mon 10:00:17 PM 39.4653 -101.2450 77° East 449 517 39,000  Level Denver Center
Mon 10:01:18 PM 39.4939 -101.0686 78° East 450 518 39,000  Level Denver Center
Mon 10:02:20 PM 39.5194 -100.9147 78° East 454 522 39,000  Level Denver Center
Mon 10:03:22 PM 39.5486 -100.7406 78° East 449 517 39,000  Level Denver Center
Mon 10:04:23 PM 39.5728 -100.5922 78° East 444 511 39,000  Level Denver Center
Mon 10:05:25 PM 39.6017 -100.4181 78° East 444 511 39,000  Level Denver Center
Mon 10:06:27 PM 39.6244 -100.2697 79° East 443 510 39,000  Level Denver Center
Mon 10:07:29 PM 39.6519 -100.0975 78° East 439 505 39,000  Level Denver Center
Mon 10:08:30 PM 39.6767 -99.9489 78° East 439 505 39,000  Level Denver Center
Mon 10:09:32 PM 39.6997 -99.7961 79° East 440 506 39,000  Level Denver Center
Mon 10:10:34 PM 39.7242 -99.6361 79° East 448 516 39,000  Level Denver Center
Mon 10:11:35 PM 39.7486 -99.4769 79° East 448 516 39,000  Level Denver Center
Mon 10:12:37 PM 39.7783 -99.2833 79° East 453 521 39,000  Level Denver Center
Mon 10:13:39 PM 39.8025 -99.1239 79° East 453 521 39,000  Level Denver Center
Mon 10:14:41 PM 39.8261 -98.9633 79° East 453 521 39,000  Level Denver Center
Mon 10:15:42 PM 39.8494 -98.8044 79° East 453 521 39,000  Level Denver Center
Mon 10:16:44 PM 39.8733 -98.6444 79° East 453 521 39,000  Level Denver Center
Mon 10:17:46 PM 39.8958 -98.4875 79° East 449 517 39,000  Level Denver Center
Mon 10:19:14 PM 39.9325 -98.2306 79° East 451 519 39,000  Level Minneapolis Center
Mon 10:20:15 PM 39.9550 -98.0678 80° East 453 521 39,000  Level Minneapolis Center
Mon 10:21:16 PM 39.9775 -97.9067 80° East 454 522 39,000  Level Minneapolis Center
Mon 10:22:17 PM 40.0003 -97.7450 80° East 454 522 39,000  Level Minneapolis Center
Mon 10:23:18 PM 40.0222 -97.5814 80° East 455 524 39,000  Level Minneapolis Center
Mon 10:24:19 PM 40.0442 -97.4181 80° East 455 524 39,000  Level Minneapolis Center
Mon 10:25:20 PM 40.0644 -97.2628 80° East 456 525 39,000  Level Minneapolis Center
Mon 10:26:21 PM 40.0867 -97.0994 80° East 456 525 39,000  Level Minneapolis Center
Mon 10:27:22 PM 40.1078 -96.9344 80° East 459 528 39,000  Level Minneapolis Center
Mon 10:28:23 PM 40.1333 -96.7386 80° East 459 528 39,000  Level Minneapolis Center
Mon 10:29:24 PM 40.1533 -96.5739 81° East 459 528 39,000  Level Minneapolis Center
Mon 10:30:25 PM 40.1756 -96.4094 80° East 459 528 39,000  Level Minneapolis Center
Mon 10:31:26 PM 40.1958 -96.2458 81° East 459 528 39,000  Level Minneapolis Center
Mon 10:32:27 PM 40.2308 -96.0836 74° East 462 532 39,000  Level Minneapolis Center
Mon 10:33:28 PM 40.2728 -95.9206 71° East 469 540 39,000  Level Minneapolis Center
Mon 10:34:29 PM 40.3142 -95.7567 72° East 473 544 39,000  Level Minneapolis Center
Mon 10:35:30 PM 40.3544 -95.5933 72° East 473 544 39,000  Level Minneapolis Center
Mon 10:36:31 PM 40.3953 -95.4286 72° East 473 544 39,000  Level Minneapolis Center
Mon 10:37:32 PM 40.4353 -95.2650 72° East 474 545 39,000  Level Minneapolis Center
Mon 10:38:33 PM 40.4839 -95.0628 72° East 480 552 39,000  Level Minneapolis Center
Mon 10:39:34 PM 40.5236 -94.8967 72° East 480 552 39,000  Level Minneapolis Center
Mon 10:40:35 PM 40.5650 -94.7297 72° East 480 552 39,000  Level Minneapolis Center
Mon 10:41:36 PM 40.6064 -94.5542 73° East 481 554 39,000  Level Minneapolis Center
Mon 10:42:37 PM 40.6469 -94.3836 73° East 487 560 39,000  Level Minneapolis Center
Mon 10:43:38 PM 40.6875 -94.2128 73° East 488 562 39,000  Level Minneapolis Center
Mon 10:44:39 PM 40.7278 -94.0406 73° East 490 564 39,000  Level Minneapolis Center
Mon 10:45:40 PM 40.7678 -93.8692 73° East 492 566 39,000  Level Minneapolis Center
Mon 10:47:39 PM 40.8422 -93.5278 74° East 488 562 39,000  Level Chicago Center
Mon 10:48:40 PM 40.8567 -93.3536 84° East 482 555 39,000 -148 Level Chicago Center
Mon 10:49:41 PM 40.8728 -93.1792 83° East 481 554 38,700 -672 Descending Chicago Center
Mon 10:50:45 PM 40.8917 -92.9722 83° East 480 552 37,600 -960 Descending Minneapolis Center
Mon 10:51:46 PM 40.9064 -92.8000 83° East 479 551 36,700 -950 Descending Minneapolis Center
Mon 10:52:45 PM 40.9206 -92.6272 84° East 474 545 35,700 -850 Descending Chicago Center
Mon 10:53:46 PM 40.9342 -92.4519 84° East 477 549 35,000 -689 Descending Chicago Center
Mon 10:54:47 PM 40.9492 -92.2789 83° East 477 549 34,300 -787 Descending Chicago Center
Mon 10:55:48 PM 40.9619 -92.1036 84° East 477 549 33,400 -878 Descending Chicago Center
Mon 10:56:50 PM 40.9758 -91.9303 84° East 477 549 32,500 -927 Descending Chicago Center
Mon 10:57:51 PM 40.9903 -91.7550 84° East 477 549 31,500 -984 Descending Chicago Center
Mon 10:58:52 PM 41.0033 -91.5789 84° East 479 551 30,500 -976 Descending Chicago Center
Mon 10:59:54 PM 41.0147 -91.4061 85° East 478 550 29,500 -968 Descending Chicago Center
Mon 11:00:56 PM 41.0275 -91.2364 84° East 468 539 28,500 -976 Descending Chicago Center
Mon 11:01:57 PM 41.0394 -91.0703 85° East 461 531 27,500 -1,131 Descending Chicago Center
Mon 11:02:58 PM 41.0533 -90.8750 85° East 447 514 26,200 -1,131 Descending Chicago Center
Mon 11:03:59 PM 41.0636 -90.7128 85° East 444 511 25,200 -984 Descending Chicago Center
Mon 11:05:00 PM 41.0772 -90.5539 83° East 438 504 24,200 -984 Descending Chicago Center
Mon 11:06:01 PM 41.0897 -90.3967 84° East 434 499 23,200 -984 Descending Chicago Center
Mon 11:07:02 PM 41.1019 -90.2419 84° East 424 488 22,200 -1,082 Descending Chicago Center
Mon 11:08:03 PM 41.1133 -90.0928 84° East 408 470 21,000 -1,082 Descending Chicago Center
Mon 11:09:04 PM 41.1239 -89.9422 85° East 407 468 20,000 -984 Descending Chicago Center
Mon 11:10:05 PM 41.1350 -89.7936 84° East 406 467 19,000 -984 Descending Chicago Center
Mon 11:11:06 PM 41.1453 -89.6461 85° East 402 463 18,000 -984 Descending Chicago Center
Mon 11:12:07 PM 41.1536 -89.4994 86° East 400 460 17,000 -984 Descending Chicago Center
Mon 11:13:08 PM 41.1631 -89.3561 85° East 395 455 16,000 -1,131 Descending Chicago Center
Mon 11:14:09 PM 41.1717 -89.2142 85° East 390 449 14,700 -1,377 Descending Chicago Center
Mon 11:15:10 PM 41.2058 -89.0900 70° East 374 430 13,200 -1,672 Descending Chicago Center
Mon 11:16:11 PM 41.2603 -88.9753 58° Northeast 369 425 11,300 -1,574 Descending Chicago Center
Mon 11:17:12 PM 41.3039 -88.8331 68° East 361 415 10,000 -1,279 Descending Chicago Center
Mon 11:18:13 PM 41.3267 -88.7233 75° East 315 362 8,700 -1,328 Descending Chicago Center
Mon 11:19:14 PM 41.3506 -88.6156 74° East 309 356 7,300 -1,328 Descending Chicago Center
Mon 11:20:15 PM 41.3744 -88.5092 73° East 304 350 6,000 -639 Descending Chicago Center
Mon 11:21:16 PM 41.4239 -88.4250 52° Northeast 292 336 6,000  Level Chicago Center
Mon 11:22:17 PM 41.4647 -88.3258 61° Northeast 286 329 6,000  Level Chicago Center
Mon 11:23:18 PM 41.4906 -88.2239 71° East 290 334 6,000 -443 Level Chicago Center
Mon 11:24:19 PM 41.5186 -88.1214 70° East 295 339 5,100 -934 Descending Chicago Center
Mon 11:25:20 PM 41.5456 -88.0186 71° East 297 342 4,100 -541 Descending Chicago Center
Mon 11:26:21 PM 41.5717 -87.9189 71° East 294 338 4,000 -295 Descending Chicago Center
Mon 11:27:22 PM 41.5994 -87.8133 71° East 286 329 3,500 -496 Descending Chicago Center
Mon 11:28:22 PM 41.6217 -87.7269 71° East 253 291 3,000 -545 Descending Chicago Center
Mon 11:29:23 PM 41.6669 -87.6669 45° Northeast 236 272 2,400 -344 Descending Chicago Center
Mon 11:30:24 PM 41.7172 -87.6619 North 180 207 2,300 -393 Descending Chicago Center
Mon 11:31:25 PM 41.7456 -87.6989 316° Northwest 146 168 1,600 -738 Descending Chicago Center
Mon 11:32:26 PM 41.7733 -87.7367 315° West 144 166 800 -443 Descending Chicago Center
Mon 11:33:27 PM 41.7972 -87.7733 311° West 144 166 700 -98 Descending Chicago Center

Login

Don't have an account? Register now (free) for customized features, flight alerts, and more!